Saint Michaels College, Vermont
Current Conditions -  °F | °C
As of 3:54 PM on Friday 31 Oct 2014 (Local Time) from KBTV Reporting Station
Broken Clouds Broken Clouds  
Wind Chill: 43°   Ceiling: 13000
Heat Index: 48°   Visibility: 10mi
Dew Point: 30°   Wind: 12mph
Humidity: 50%   Direction: 340°NNW
Pressure: 30.01"   Gusts: NA
Location:  44.5489°N, 73.1859°W
Report Text: KBTV 311954Z 34010KT 10SM FEW050 FEW060 BKN130 09/M01 A3001 RMK AO2 SLP166 T00891011
Loading
Personal Weather Stations






























Interactive Weather Map
Tropical Storm Tracking
New forecast layout! Learn more

10-Day Weather Forecast

Advertisements
Track Severe Weather on mobile